Terminal Aerodrome Forecast
Issued by NWS

Home | Current Version | Previous Version | Text Only | Print | Product List | Glossary On
Versions: 1 2 3 4 5 6 7 8 9 10 11 12 13 14 15 16 17 18 19 20 21 22 23 24 25 26 27 28 29
000
FTAK31 PANC 110601 AAA
TAFACD
TAF AMD
PACD 110601Z 1106/1206 VRB05KT 5SM -SN BR BKN022
      TEMPO 1106/1110 2SM -SN BR
     FM111500 15008KT P6SM VCSH SCT015 BKN025
     FM112100 15012KT P6SM VCSH SCT015 BKN025=

USA.gov is the U.S. government's official web portal to all federal, state and local government web resources and services.